Amelia Village, Florida
Current Conditions -  °F | °C
As of 9:15 AM on Thursday 27 Nov 2014 (Local Time) from KFHB Reporting Station
Clear Clear  
Wind Chill: 57°   Ceiling: Unl
Heat Index: 57°   Visibility: 10mi
Dew Point: 43°   Wind: 13mph
Humidity: 59%   Direction: 300°WNW
Pressure: 30.25"   Gusts: 17mph
Location:  30.6697°N, 81.4629°W
Report Text: KFHB 271415Z AUTO 30011G15KT 10SM CLR 14/06 A3025 RMK AO1
Loading
Personal Weather Stations






























Interactive Weather Map New forecast layout! Learn more

10-Day Weather Forecast

Advertisements
Track Severe Weather on mobile